Aérodrome :
LOGIN :

S'inscrire | Disclaimer

   EN    FR    IT 

 










Légende :    VFR   VFR Marginal   IFR   IFR Intensif   IFR Très Intensif
Visi : 
Plafond : 
>= 8 km
>= 3000ft
5 à 8 km
1000 à 3000 ft
1500m à 5 km
500 à 1000 ft
800 à 1500m
200 à 500 ft
< 800m
< 200 ft
Symboles :   Orages  Brouillard  Fortes neiges  Fortes précipitations  Vent > 20 kt
SIGMETs :   Divers  Orages  Givrage  Turbulence  Onde Orograph.  Cendres Volcan.







- Altitude de l'aérodrome : 1367 ft
- Code IATA : FDH


EDNY - Friedrichshafen

DERNIER METAR :
  • 180120Z AUTO VRB01KT 2000 0400/ R24/1500VP2000U -SHRA FG 07/06 Q1019

METARs EXPIRÉS :
  • 180050Z AUTO VRB03KT 1500 0450/ R24/1200VP2000U BR 07/06 Q1019
  • 180020Z AUTO 07004KT 1300 0250/ R24/P2000N BCFG NSC 07/07 Q1020
  • 172350Z AUTO 00000KT 1700 0600/ R24/P2000N BR FEW003 08/08 Q1020
  • 172320Z AUTO 00000KT 2300 0900/ R24/1500VP2000D BR 08/08 Q1020

TAF TAF EDNY
Valide du 18 à 00h jusqu'au 19 à 00h UTC


172300Z 1800/1824 VRB03KT 7000 NSC
TEMPO 1800/1808 0300 FG VV001
Pas de NOTAMs connus pour ce terrain.



MET'MAP, la Météo Aéronautique d'un coup d'oeil ! - Copyright ORBIFLY Décembre 2007 - Disclaimer

ORBIFLY MET'MAP TEAM :

Programmation & Développement : Alexandra Zaïnal
Conception & Développement : Baudouin d'Aumeries
Co-Programmation & Développement : Marc-Olivier Méhu
Soutien technique & logistique : Manuel Goepfert

Contact : metmap@orbifly.com




SOURCES & CREDITS :

   NOAA